Time;durP1;ratioP1;P1;durP2;ratioP2;P2;SDS_P1;SDS_P2;PMS_P1;PMS_P2;Temp;Humidity;BMP_temperature;BMP_pressure;BME280_temperature;BME280_humidity;BME280_pressure;Samples;Min_cycle;Max_cycle;Signal;HPM_P1;HPM_P2
2023/11/04 00:01:05;;;;;;;1.2;1;;;;;;;;;;;;;
2023/11/04 00:03:33;;;;;;;2;1.3;;;;;;;;;;;;;
2023/11/04 00:06:01;;;;;;;1.5;1.2;;;;;;;;;;;;;
2023/11/04 00:08:29;;;;;;;1.1;1;;;;;;;;;;;;;
2023/11/04 00:10:54;;;;;;;1.5;1.2;;;;;;;;;;;;;
2023/11/04 00:13:26;;;;;;;1.5;1.4;;;;;;;;;;;;;
2023/11/04 00:15:51;;;;;;;2.4;1.8;;;;;;;;;;;;;
2023/11/04 00:18:27;;;;;;;2.4;1.6;;;;;;;;;;;;;
2023/11/04 00:20:54;;;;;;;2.5;2;;;;;;;;;;;;;
2023/11/04 00:23:18;;;;;;;2.3;1.7;;;;;;;;;;;;;
2023/11/04 00:25:53;;;;;;;3.1;2;;;;;;;;;;;;;
2023/11/04 00:28:19;;;;;;;2.2;1.7;;;;;;;;;;;;;
2023/11/04 00:30:48;;;;;;;1.3;1.1;;;;;;;;;;;;;
2023/11/04 00:33:14;;;;;;;1.2;1.1;;;;;;;;;;;;;
2023/11/04 00:35:37;;;;;;;1;0.9;;;;;;;;;;;;;
2023/11/04 00:38:03;;;;;;;1.2;1.1;;;;;;;;;;;;;
2023/11/04 00:40:28;;;;;;;1.3;1.2;;;;;;;;;;;;;
2023/11/04 00:42:54;;;;;;;1.1;1;;;;;;;;;;;;;
2023/11/04 00:45:19;;;;;;;1.4;1;;;;;;;;;;;;;
2023/11/04 00:47:46;;;;;;;1.1;1;;;;;;;;;;;;;
2023/11/04 00:50:11;;;;;;;1.7;1.2;;;;;;;;;;;;;
2023/11/04 00:52:39;;;;;;;1.2;1;;;;;;;;;;;;;
2023/11/04 00:55:05;;;;;;;2.6;2;;;;;;;;;;;;;
2023/11/04 00:57:34;;;;;;;1.7;1.4;;;;;;;;;;;;;
2023/11/04 00:59:59;;;;;;;2.1;1.5;;;;;;;;;;;;;
2023/11/04 01:02:26;;;;;;;1.2;1.1;;;;;;;;;;;;;
2023/11/04 01:04:51;;;;;;;1.4;1.1;;;;;;;;;;;;;
2023/11/04 01:07:20;;;;;;;1.6;1.4;;;;;;;;;;;;;
2023/11/04 01:09:46;;;;;;;1.4;1.3;;;;;;;;;;;;;
2023/11/04 01:12:11;;;;;;;1.3;1.2;;;;;;;;;;;;;
2023/11/04 01:14:37;;;;;;;1.3;1.2;;;;;;;;;;;;;
2023/11/04 01:17:03;;;;;;;1.5;1.2;;;;;;;;;;;;;
2023/11/04 01:19:28;;;;;;;1.7;1.2;;;;;;;;;;;;;
2023/11/04 01:21:55;;;;;;;1.3;1.2;;;;;;;;;;;;;
2023/11/04 01:24:20;;;;;;;2.2;1.4;;;;;;;;;;;;;
2023/11/04 01:26:45;;;;;;;3.2;1.6;;;;;;;;;;;;;
2023/11/04 01:29:11;;;;;;;2;1.4;;;;;;;;;;;;;
2023/11/04 01:31:38;;;;;;;1.9;1.2;;;;;;;;;;;;;
2023/11/04 01:34:03;;;;;;;1.6;1.3;;;;;;;;;;;;;
2023/11/04 01:36:30;;;;;;;1.5;1;;;;;;;;;;;;;
2023/11/04 01:38:55;;;;;;;1.3;0.9;;;;;;;;;;;;;
2023/11/04 01:41:20;;;;;;;1.4;1.3;;;;;;;;;;;;;
2023/11/04 01:43:46;;;;;;;1.4;1.3;;;;;;;;;;;;;
2023/11/04 01:46:13;;;;;;;2;1.4;;;;;;;;;;;;;
2023/11/04 01:48:38;;;;;;;1.3;1;;;;;;;;;;;;;
2023/11/04 01:51:04;;;;;;;2.1;0.9;;;;;;;;;;;;;
2023/11/04 01:53:30;;;;;;;1.5;0.8;;;;;;;;;;;;;
2023/11/04 01:55:57;;;;;;;2.5;1;;;;;;;;;;;;;
2023/11/04 01:58:22;;;;;;;1;0.9;;;;;;;;;;;;;
2023/11/04 02:00:50;;;;;;;1.4;1.1;;;;;;;;;;;;;
2023/11/04 02:03:15;;;;;;;1.1;1;;;;;;;;;;;;;
2023/11/04 02:05:42;;;;;;;1.2;1.1;;;;;;;;;;;;;
2023/11/04 02:08:08;;;;;;;3.5;3.2;;;;;;;;;;;;;
2023/11/04 02:10:38;;;;;;;1.8;1.1;;;;;;;;;;;;;
2023/11/04 02:13:08;;;;;;;1.3;1;;;;;;;;;;;;;
2023/11/04 02:15:36;;;;;;;1.6;1.1;;;;;;;;;;;;;
2023/11/04 02:18:02;;;;;;;1.3;0.9;;;;;;;;;;;;;
2023/11/04 02:20:29;;;;;;;0.6;0.6;;;;;;;;;;;;;
2023/11/04 02:22:54;;;;;;;1.1;0.9;;;;;;;;;;;;;
2023/11/04 02:25:22;;;;;;;1.2;0.8;;;;;;;;;;;;;
2023/11/04 02:27:48;;;;;;;1.5;1;;;;;;;;;;;;;
2023/11/04 02:30:19;;;;;;;1.1;1;;;;;;;;;;;;;
2023/11/04 02:32:51;;;;;;;1.2;1.1;;;;;;;;;;;;;
2023/11/04 02:35:19;;;;;;;19.5;8.1;;;;;;;;;;;;;
2023/11/04 02:37:44;;;;;;;15.4;7.2;;;;;;;;;;;;;
2023/11/04 02:40:12;;;;;;;9.4;5.2;;;;;;;;;;;;;
2023/11/04 02:42:36;;;;;;;5.7;3.5;;;;;;;;;;;;;
2023/11/04 02:45:02;;;;;;;6.7;3.9;;;;;;;;;;;;;
2023/11/04 02:47:27;;;;;;;9.2;5.1;;;;;;;;;;;;;
2023/11/04 02:49:53;;;;;;;5.9;3.4;;;;;;;;;;;;;
2023/11/04 02:52:18;;;;;;;4;2.2;;;;;;;;;;;;;
2023/11/04 02:54:45;;;;;;;3.2;2.2;;;;;;;;;;;;;
2023/11/04 02:57:11;;;;;;;2.2;1.5;;;;;;;;;;;;;
2023/11/04 02:59:39;;;;;;;1.2;1;;;;;;;;;;;;;
2023/11/04 03:02:04;;;;;;;1.2;0.9;;;;;;;;;;;;;
2023/11/04 03:04:30;;;;;;;1;1;;;;;;;;;;;;;
2023/11/04 03:06:55;;;;;;;1.8;0.9;;;;;;;;;;;;;
2023/11/04 03:09:21;;;;;;;1.5;0.8;;;;;;;;;;;;;
2023/11/04 03:11:45;;;;;;;0.9;0.8;;;;;;;;;;;;;
2023/11/04 03:14:14;;;;;;;1;0.9;;;;;;;;;;;;;
2023/11/04 03:16:39;;;;;;;1.5;1.2;;;;;;;;;;;;;
2023/11/04 03:19:05;;;;;;;1;0.9;;;;;;;;;;;;;
2023/11/04 03:21:30;;;;;;;1.1;1;;;;;;;;;;;;;
2023/11/04 03:23:55;;;;;;;0.9;0.8;;;;;;;;;;;;;
2023/11/04 03:26:21;;;;;;;2;1;;;;;;;;;;;;;
2023/11/04 03:28:46;;;;;;;3.3;2.1;;;;;;;;;;;;;
2023/11/04 03:31:13;;;;;;;2.6;2.4;;;;;;;;;;;;;
2023/11/04 03:33:38;;;;;;;2.3;1.7;;;;;;;;;;;;;
2023/11/04 03:36:06;;;;;;;1.2;1.1;;;;;;;;;;;;;
2023/11/04 03:38:31;;;;;;;1.6;1.3;;;;;;;;;;;;;
2023/11/04 03:40:58;;;;;;;1.5;1;;;;;;;;;;;;;
2023/11/04 03:43:23;;;;;;;1.1;0.9;;;;;;;;;;;;;
2023/11/04 03:45:48;;;;;;;1.1;1;;;;;;;;;;;;;
2023/11/04 03:48:13;;;;;;;1.1;1;;;;;;;;;;;;;
2023/11/04 03:50:41;;;;;;;0.8;0.8;;;;;;;;;;;;;
2023/11/04 03:53:06;;;;;;;1.2;1.1;;;;;;;;;;;;;
2023/11/04 03:55:34;;;;;;;1.2;0.8;;;;;;;;;;;;;
2023/11/04 03:57:59;;;;;;;0.8;0.7;;;;;;;;;;;;;
2023/11/04 04:02:36;;;;;;;0.6;0.6;;;;;;;2.18;98.5;918.74;;;;
2023/11/04 04:05:03;;;;;;;0.7;0.7;;;;;;;2.23;98.37598;918.6614;;;;
2023/11/04 04:07:32;;;;;;;0.8;0.7;;;;;;;2.26;97.84766;918.6334;;;;
2023/11/04 04:09:57;;;;;;;0.9;0.8;;;;;;;2.14;98.11133;918.6195;;;;
2023/11/04 04:12:22;;;;;;;0.7;0.7;;;;;;;2.2;98.26953;918.6099;;;;
2023/11/04 04:14:48;;;;;;;1.3;0.7;;;;;;;2.18;98.5791;918.616;;;;
2023/11/04 04:17:13;;;;;;;1.3;0.7;;;;;;;2.22;98.49707;918.5145;;;;
2023/11/04 04:19:39;;;;;;;0.7;0.7;;;;;;;2.13;99.08105;918.6304;;;;
2023/11/04 04:22:04;;;;;;;2.2;0.9;;;;;;;2.14;99.26465;918.5709;;;;
2023/11/04 04:24:29;;;;;;;1.3;0.8;;;;;;;2.22;99.71777;918.5945;;;;
2023/11/04 04:26:59;;;;;;;0.9;0.9;;;;;;;2.21;99.40234;918.5655;;;;
2023/11/04 04:29:25;;;;;;;1.3;0.9;;;;;;;2.28;99.12793;918.5747;;;;
2023/11/04 04:31:50;;;;;;;0.7;0.7;;;;;;;2.27;99.21777;918.4011;;;;
2023/11/04 04:34:21;;;;;;;0.9;0.9;;;;;;;2.3;99.40332;918.4641;;;;
2023/11/04 04:36:51;;;;;;;1.4;0.8;;;;;;;2.36;99.10059;918.4017;;;;
2023/11/04 04:39:23;;;;;;;0.7;0.6;;;;;;;2.39;98.53711;918.3682;;;;
2023/11/04 04:41:48;;;;;;;0.8;0.8;;;;;;;2.22;99.08008;918.3669;;;;
2023/11/04 04:44:13;;;;;;;1.2;1.1;;;;;;;2.28;99.43066;918.3077;;;;
2023/11/04 04:46:38;;;;;;;81;31.4;;;;;;;2.49;98.77344;918.2985;;;;
2023/11/04 04:49:04;;;;;;;2.9;1.7;;;;;;;2.44;98.87305;918.2416;;;;
2023/11/04 04:51:29;;;;;;;1.8;1.4;;;;;;;2.27;98.98242;918.2488;;;;
2023/11/04 04:54:00;;;;;;;1.3;1.2;;;;;;;2.2;99.73828;918.2608;;;;
2023/11/04 04:56:26;;;;;;;1.7;1;;;;;;;2.32;98.99121;918.202;;;;
2023/11/04 04:58:50;;;;;;;0.9;0.8;;;;;;;2.28;99.09473;918.1177;;;;
2023/11/04 05:01:16;;;;;;;1.3;1.1;;;;;;;2.28;99.50879;918.0934;;;;
2023/11/04 05:03:46;;;;;;;5;3.1;;;;;;;2.32;99.27148;918.0693;;;;
2023/11/04 05:06:16;;;;;;;4;2.7;;;;;;;2.41;98.36426;918.0922;;;;
2023/11/04 05:08:41;;;;;;;1.4;1.1;;;;;;;2.28;98.5459;917.9866;;;;
2023/11/04 05:11:11;;;;;;;1.1;1;;;;;;;2.28;97.96387;918.0698;;;;
2023/11/04 05:13:36;;;;;;;1.6;0.9;;;;;;;2.07;98.60938;918.0444;;;;
2023/11/04 05:16:05;;;;;;;1.1;1;;;;;;;1.79;100;918.1136;;;;
2023/11/04 05:18:34;;;;;;;1.2;1.1;;;;;;;1.62;100;918.0054;;;;
2023/11/04 05:21:07;;;;;;;1.3;1;;;;;;;1.74;100;917.9312;;;;
2023/11/04 05:23:36;;;;;;;1.9;1.2;;;;;;;1.77;100;917.9778;;;;
2023/11/04 05:26:03;;;;;;;2;1.2;;;;;;;1.88;100;917.9272;;;;
2023/11/04 05:28:36;;;;;;;1.4;1.3;;;;;;;1.92;100;917.8986;;;;
2023/11/04 05:31:04;;;;;;;2.6;1.8;;;;;;;1.92;100;917.8867;;;;
2023/11/04 05:33:28;;;;;;;3.7;2.3;;;;;;;1.99;100;917.8033;;;;
2023/11/04 05:35:59;;;;;;;2.3;2.1;;;;;;;1.79;100;917.8635;;;;
2023/11/04 05:38:32;;;;;;;2.3;1.9;;;;;;;1.64;100;917.8378;;;;
2023/11/04 05:40:56;;;;;;;2.7;1.8;;;;;;;1.71;100;917.7897;;;;
2023/11/04 05:43:25;;;;;;;1.9;1.6;;;;;;;1.74;100;917.7845;;;;
2023/11/04 05:45:49;;;;;;;1.7;1.6;;;;;;;1.83;100;917.6216;;;;
2023/11/04 05:48:19;;;;;;;1.9;1.4;;;;;;;1.81;100;917.5297;;;;
2023/11/04 05:50:43;;;;;;;1.7;1.2;;;;;;;1.85;100;917.5951;;;;
2023/11/04 05:53:10;;;;;;;1.7;1.5;;;;;;;1.77;100;917.4568;;;;
2023/11/04 05:55:36;;;;;;;1.3;1.1;;;;;;;1.72;100;917.5522;;;;
2023/11/04 05:58:04;;;;;;;0.9;0.9;;;;;;;1.62;100;917.6172;;;;
2023/11/04 06:00:28;;;;;;;1;1;;;;;;;1.44;100;917.5691;;;;
2023/11/04 06:02:59;;;;;;;1.6;1;;;;;;;1.35;100;917.5302;;;;
2023/11/04 06:05:27;;;;;;;0.8;0.8;;;;;;;1.33;100;917.4642;;;;
2023/11/04 06:07:53;;;;;;;1.8;1.7;;;;;;;1.3;100;917.5148;;;;
2023/11/04 06:10:21;;;;;;;3.2;2.4;;;;;;;1.28;100;917.4363;;;;
2023/11/04 06:12:45;;;;;;;3.3;2.6;;;;;;;1.45;100;917.2971;;;;
2023/11/04 06:15:15;;;;;;;3;2.2;;;;;;;1.3;100;917.3769;;;;
2023/11/04 06:17:44;;;;;;;3.1;2;;;;;;;1.4;100;917.3848;;;;
2023/11/04 06:20:10;;;;;;;2.3;2;;;;;;;1.4;100;917.3159;;;;
2023/11/04 06:22:37;;;;;;;2.3;1.9;;;;;;;1.25;100;917.3787;;;;
2023/11/04 06:25:02;;;;;;;4.3;2.2;;;;;;;1.49;100;917.3138;;;;
2023/11/04 06:27:30;;;;;;;4.1;2.8;;;;;;;1.53;100;917.0994;;;;
2023/11/04 06:29:56;;;;;;;3.1;2.5;;;;;;;1.63;100;917.1961;;;;
2023/11/04 06:32:21;;;;;;;4.1;2.8;;;;;;;1.62;100;917.2203;;;;
2023/11/04 06:34:50;;;;;;;4.9;3.3;;;;;;;1.75;99.9541;917.15;;;;
2023/11/04 06:37:15;;;;;;;5.7;3.2;;;;;;;1.76;99.91211;917.0606;;;;
2023/11/04 06:39:43;;;;;;;4;2.6;;;;;;;1.82;99.5459;917.103;;;;
2023/11/04 06:42:10;;;;;;;4.2;3.1;;;;;;;1.59;100;917.1335;;;;
2023/11/04 06:46:02;;;;;;;4.4;3.3;;;;;;;1.65;100;917.0433;;;;
2023/11/04 06:48:27;;;;;;;3;2.6;;;;;;;1.75;100;916.9861;;;;
2023/11/04 06:50:52;;;;;;;2.2;1.9;;;;;;;2.03;100;917.0396;;;;
2023/11/04 06:53:21;;;;;;;2.8;2.3;;;;;;;2.24;99.91309;917.0577;;;;
2023/11/04 06:55:58;;;;;;;3.4;2.7;;;;;;;2.49;99.24414;917.0302;;;;
2023/11/04 06:58:22;;;;;;;4;2.5;;;;;;;2.95;97.43359;917.0647;;;;
2023/11/04 07:00:54;;;;;;;3.3;2;;;;;;;3.17;95.7207;917.1111;;;;
2023/11/04 07:03:15;;;;;;;3.1;2.2;;;;;;;3.42;93.80176;917.1414;;;;
2023/11/04 07:05:40;;;;;;;4;2.9;;;;;;;3.41;93.39355;917.0508;;;;
2023/11/04 07:08:10;;;;;;;3.2;2.9;;;;;;;3.62;92.39648;916.9924;;;;
2023/11/04 07:10:40;;;;;;;3.2;2.6;;;;;;;3.81;92.24805;917.0131;;;;
2023/11/04 07:13:07;;;;;;;3.5;2.6;;;;;;;3.93;89.84473;916.9131;;;;
2023/11/04 07:15:31;;;;;;;3.5;2.5;;;;;;;3.9;90.89648;916.8809;;;;
2023/11/04 07:17:57;;;;;;;3;2.4;;;;;;;3.95;90.59277;916.921;;;;
2023/11/04 07:20:24;;;;;;;1.3;1.2;;;;;;;3.89;88.08203;916.899;;;;
2023/11/04 07:22:53;;;;;;;1.9;1.5;;;;;;;4.13;88.4248;916.8699;;;;
2023/11/04 07:25:19;;;;;;;1.8;1.3;;;;;;;4.38;87.20508;916.8217;;;;
2023/11/04 07:27:43;;;;;;;3.2;2.2;;;;;;;4.65;86.21191;916.8088;;;;
2023/11/04 07:30:09;;;;;;;3.2;1.9;;;;;;;4.92;85.44531;916.8175;;;;
2023/11/04 07:32:36;;;;;;;6.6;4.7;;;;;;;5.14;83.2002;916.8403;;;;
2023/11/04 07:35:00;;;;;;;7;4.7;;;;;;;5.34;83.02246;916.7086;;;;
2023/11/04 07:37:30;;;;;;;7;3.9;;;;;;;5.58;82.48438;916.7419;;;;
2023/11/04 07:39:59;;;;;;;2.5;1.8;;;;;;;5.6;82.20605;916.6628;;;;
2023/11/04 07:42:24;;;;;;;2.5;1.8;;;;;;;5.6;81.43848;916.5926;;;;
2023/11/04 07:44:50;;;;;;;3.6;2.4;;;;;;;5.51;81.79395;916.5925;;;;
2023/11/04 07:47:17;;;;;;;3.7;2.2;;;;;;;5.62;81.59961;916.4633;;;;
2023/11/04 07:49:42;;;;;;;3.9;2;;;;;;;5.76;81.67285;916.4401;;;;
2023/11/04 07:52:10;;;;;;;3.3;1.8;;;;;;;5.92;81.54395;916.3541;;;;
2023/11/04 07:54:35;;;;;;;4.2;2.3;;;;;;;6.14;81.05371;916.2907;;;;
2023/11/04 07:57:03;;;;;;;3.2;2.1;;;;;;;6.2;80.13867;916.3532;;;;
2023/11/04 07:59:30;;;;;;;2.5;2;;;;;;;6.15;80.17578;916.4581;;;;
2023/11/04 08:02:00;;;;;;;1.4;1.3;;;;;;;6.21;78.5;916.3495;;;;
2023/11/04 08:04:28;;;;;;;1.6;1.5;;;;;;;6.28;76.66113;916.329;;;;
2023/11/04 08:06:53;;;;;;;2.3;1;;;;;;;6.43;77.10645;916.2542;;;;
2023/11/04 08:09:22;;;;;;;1;0.7;;;;;;;6.54;74.01367;916.1984;;;;
2023/11/04 08:11:47;;;;;;;1.5;0.9;;;;;;;6.43;74.46094;916.1563;;;;
2023/11/04 08:14:13;;;;;;;1.1;1;;;;;;;6.23;73.70117;916.1305;;;;
2023/11/04 08:16:38;;;;;;;1.6;1;;;;;;;6.25;75.72949;916.1729;;;;
2023/11/04 08:19:06;;;;;;;1.2;0.8;;;;;;;6.27;76.94043;916.0922;;;;
2023/11/04 08:21:34;;;;;;;1.6;1.3;;;;;;;6.36;77.72754;916.0681;;;;
2023/11/04 08:23:56;;;;;;;1.2;1.1;;;;;;;6.4;77.99414;916.0227;;;;
2023/11/04 08:26:24;;;;;;;1.4;1.2;;;;;;;6.49;78.26074;915.8022;;;;
2023/11/04 08:28:51;;;;;;;1.6;1.1;;;;;;;6.23;77.92871;915.8752;;;;
2023/11/04 08:31:20;;;;;;;1.8;1.2;;;;;;;6.28;77.49805;915.8265;;;;
2023/11/04 08:33:48;;;;;;;1.5;0.8;;;;;;;6.36;78.12109;915.7;;;;
2023/11/04 08:36:10;;;;;;;0.6;0.6;;;;;;;6.4;75.95996;915.5944;;;;
2023/11/04 08:38:39;;;;;;;2.7;1.1;;;;;;;6.28;77.89355;915.6147;;;;
2023/11/04 08:41:04;;;;;;;1.9;1.2;;;;;;;6.37;78.35059;915.5583;;;;
2023/11/04 08:43:34;;;;;;;1.6;1.3;;;;;;;6.43;78.97266;915.5025;;;;
2023/11/04 08:46:04;;;;;;;2.4;1;;;;;;;6.45;77.16699;915.4217;;;;
2023/11/04 08:48:29;;;;;;;1.8;0.9;;;;;;;6.32;77.25488;915.3409;;;;
2023/11/04 08:50:59;;;;;;;1.1;0.7;;;;;;;6.29;75.93945;915.2503;;;;
2023/11/04 08:53:28;;;;;;;1.2;1.1;;;;;;;6.31;77.12891;915.1631;;;;
2023/11/04 08:55:53;;;;;;;1.3;1;;;;;;;6.32;76.13574;915.1624;;;;
2023/11/04 08:58:18;;;;;;;0.4;0.4;;;;;;;6.33;74.63379;915.1653;;;;
2023/11/04 09:00:48;;;;;;;0.3;0.3;;;;;;;6.47;71.84277;915.1749;;;;
2023/11/04 09:03:13;;;;;;;0.3;0.3;;;;;;;6.72;72.53027;915.1481;;;;
2023/11/04 09:05:44;;;;;;;0.5;0.5;;;;;;;6.87;70.40332;915.1456;;;;
2023/11/04 09:08:13;;;;;;;1;0.6;;;;;;;7.22;68.7168;915.079;;;;
2023/11/04 09:10:42;;;;;;;1.1;0.7;;;;;;;7.15;67.41406;915.015;;;;
2023/11/04 09:13:08;;;;;;;1.2;0.5;;;;;;;7.18;72.88965;914.9481;;;;
2023/11/04 09:15:37;;;;;;;1.6;0.7;;;;;;;7.53;66.55469;914.9097;;;;
2023/11/04 09:18:07;;;;;;;0.6;0.6;;;;;;;7.73;69.04688;914.7639;;;;
2023/11/04 09:20:31;;;;;;;0.8;0.8;;;;;;;7.81;66.62109;914.788;;;;
2023/11/04 09:23:02;;;;;;;0.6;0.5;;;;;;;7.85;68.65918;914.8039;;;;
2023/11/04 09:25:37;;;;;;;0.9;0.7;;;;;;;8.04;68.49512;914.7792;;;;
2023/11/04 09:28:02;;;;;;;0.4;0.4;;;;;;;7.92;68.82813;914.7258;;;;
2023/11/04 09:30:27;;;;;;;0.6;0.4;;;;;;;7.98;64.19727;914.7205;;;;
2023/11/04 09:32:57;;;;;;;0.6;0.6;;;;;;;8.13;66.22852;914.649;;;;
2023/11/04 09:35:22;;;;;;;1.1;0.7;;;;;;;8.33;64.59082;914.6175;;;;
2023/11/04 09:37:46;;;;;;;0.6;0.6;;;;;;;8.42;63.53516;914.5822;;;;
2023/11/04 09:40:12;;;;;;;0.7;0.6;;;;;;;8.39;65.53027;914.6103;;;;
2023/11/04 09:42:42;;;;;;;0.3;0.3;;;;;;;8.43;65.8418;914.5591;;;;
2023/11/04 09:45:07;;;;;;;0.3;0.3;;;;;;;8.67;62.88965;914.497;;;;
2023/11/04 09:47:32;;;;;;;0.4;0.4;;;;;;;9.01;65.00977;914.4952;;;;
2023/11/04 09:50:08;;;;;;;0.2;0.2;;;;;;;9.24;65.04492;914.3282;;;;
2023/11/04 09:52:40;;;;;;;1.1;0.7;;;;;;;9.25;64.61426;914.3161;;;;
2023/11/04 09:55:09;;;;;;;0.7;0.5;;;;;;;9.37;60.03125;914.1956;;;;
2023/11/04 09:57:38;;;;;;;0.6;0.6;;;;;;;9.11;61.69043;914.1653;;;;
2023/11/04 10:00:03;;;;;;;0.6;0.4;;;;;;;9.01;57.20508;914.1779;;;;
2023/11/04 10:02:35;;;;;;;0.4;0.2;;;;;;;9.17;57.88672;914.1868;;;;
2023/11/04 10:05:00;;;;;;;1.1;0.5;;;;;;;9.49;56.28906;914.0706;;;;
2023/11/04 10:07:24;;;;;;;0.6;0.4;;;;;;;9.59;57.43066;914.1275;;;;
2023/11/04 10:09:53;;;;;;;0.7;0.5;;;;;;;9.52;59.83594;914.0316;;;;
2023/11/04 10:12:18;;;;;;;0.6;0.4;;;;;;;9.74;60.65234;914.0739;;;;
2023/11/04 10:14:45;;;;;;;0.4;0.4;;;;;;;9.59;53.27246;914.037;;;;
2023/11/04 10:17:10;;;;;;;0.4;0.4;;;;;;;9.5;53.92188;913.9352;;;;
2023/11/04 10:19:38;;;;;;;0.4;0.4;;;;;;;9.6;52.21387;913.873;;;;
2023/11/04 10:22:03;;;;;;;0.6;0.5;;;;;;;9.54;53.6875;913.7292;;;;
2023/11/04 10:24:32;;;;;;;0.7;0.4;;;;;;;9.35;53.87988;913.7299;;;;
2023/11/04 10:26:57;;;;;;;0.3;0.3;;;;;;;9.44;54.68848;913.65;;;;
2023/11/04 10:29:23;;;;;;;0.3;0.3;;;;;;;9.63;52.43359;913.5485;;;;
2023/11/04 10:31:48;;;;;;;0.3;0.3;;;;;;;9.74;53.2334;913.4406;;;;
2023/11/04 10:34:13;;;;;;;0.4;0.3;;;;;;;9.67;56.55273;913.3915;;;;
2023/11/04 10:36:39;;;;;;;0.3;0.3;;;;;;;9.54;54.35938;913.3028;;;;
2023/11/04 10:39:08;;;;;;;0.4;0.4;;;;;;;9.76;53.54395;913.3438;;;;
2023/11/04 10:41:36;;;;;;;0.3;0.3;;;;;;;10.03;55.50391;913.4266;;;;
2023/11/04 10:44:01;;;;;;;0.2;0.2;;;;;;;10.2;53.49512;913.4033;;;;
2023/11/04 10:46:27;;;;;;;0.5;0.5;;;;;;;10.35;55.61426;913.4155;;;;
2023/11/04 10:48:53;;;;;;;0.3;0.3;;;;;;;10.5;54.25195;913.3872;;;;
2023/11/04 10:51:19;;;;;;;0.8;0.8;;;;;;;10.47;53.47168;913.3141;;;;
2023/11/04 10:53:46;;;;;;;0.5;0.5;;;;;;;10.79;53.7168;913.2361;;;;
2023/11/04 10:56:18;;;;;;;0.3;0.2;;;;;;;10.74;51.68945;913.313;;;;
2023/11/04 10:58:47;;;;;;;0.3;0.3;;;;;;;10.65;51.34668;913.2971;;;;
2023/11/04 11:01:12;;;;;;;0.5;0.4;;;;;;;11.1;48.82813;913.1635;;;;
2023/11/04 11:03:42;;;;;;;0.4;0.4;;;;;;;11.35;47.21973;913.1928;;;;
2023/11/04 11:06:06;;;;;;;1.1;0.4;;;;;;;11.64;48.70508;913.1548;;;;
2023/11/04 11:08:35;;;;;;;0.4;0.3;;;;;;;11.88;48.18262;912.9531;;;;
2023/11/04 11:11:00;;;;;;;2.8;0.8;;;;;;;12.09;46.85352;912.9872;;;;
2023/11/04 11:13:25;;;;;;;0.4;0.3;;;;;;;12.11;46.35156;912.897;;;;
2023/11/04 11:15:51;;;;;;;0.4;0.3;;;;;;;12.23;44.875;912.8718;;;;
2023/11/04 11:18:17;;;;;;;0.4;0.4;;;;;;;12.45;45.04688;912.827;;;;
2023/11/04 11:20:42;;;;;;;0.3;0.3;;;;;;;12.6;46.38184;912.7213;;;;
2023/11/04 11:23:13;;;;;;;0.3;0.2;;;;;;;12.47;44.39453;912.6476;;;;
2023/11/04 11:25:36;;;;;;;0.3;0.3;;;;;;;12.37;45.67969;912.6433;;;;
2023/11/04 11:28:04;;;;;;;0.8;0.3;;;;;;;12.05;47.28516;912.5345;;;;
2023/11/04 11:30:29;;;;;;;0.3;0.3;;;;;;;11.99;52.49219;912.6505;;;;
2023/11/04 11:32:58;;;;;;;0.5;0.4;;;;;;;11.83;50.5127;912.5228;;;;
2023/11/04 11:35:23;;;;;;;0.3;0.3;;;;;;;11.98;52.14648;912.4869;;;;
2023/11/04 11:37:56;;;;;;;0.7;0.6;;;;;;;12.15;49.01563;912.4728;;;;
2023/11/04 11:40:22;;;;;;;0.5;0.5;;;;;;;12.07;47.83691;912.4366;;;;
2023/11/04 11:42:46;;;;;;;3.2;0.5;;;;;;;12.23;48.9668;912.4394;;;;
2023/11/04 11:45:18;;;;;;;0.8;0.6;;;;;;;12.51;46.36035;912.2668;;;;
2023/11/04 11:47:46;;;;;;;0.9;0.8;;;;;;;12.87;47.25977;912.2569;;;;
2023/11/04 11:50:12;;;;;;;0.6;0.4;;;;;;;13.37;44.86621;912.2054;;;;
2023/11/04 11:52:39;;;;;;;0.7;0.4;;;;;;;13.49;42.22266;912.1892;;;;
2023/11/04 11:55:04;;;;;;;0.2;0.2;;;;;;;13.19;42.76855;912.1322;;;;
2023/11/04 11:57:31;;;;;;;0.4;0.4;;;;;;;12.75;42.65723;912.1199;;;;
2023/11/04 11:59:57;;;;;;;1.1;0.6;;;;;;;12.33;44.05957;911.9713;;;;
2023/11/04 12:02:26;;;;;;;1;0.6;;;;;;;11.98;42.77637;911.9135;;;;
2023/11/04 12:04:55;;;;;;;1.2;0.5;;;;;;;11.58;48.69922;911.9363;;;;
2023/11/04 12:07:20;;;;;;;0.5;0.5;;;;;;;11.71;46.31055;911.8536;;;;
2023/11/04 12:09:48;;;;;;;0.2;0.2;;;;;;;11.85;45.14453;911.7988;;;;
2023/11/04 12:12:15;;;;;;;0.7;0.5;;;;;;;11.78;47.81738;911.7665;;;;
2023/11/04 12:14:38;;;;;;;0.7;0.4;;;;;;;11.72;50.66211;911.7664;;;;
2023/11/04 12:17:08;;;;;;;0.3;0.3;;;;;;;11.55;46.13281;911.7383;;;;
2023/11/04 12:19:34;;;;;;;0.4;0.4;;;;;;;11.35;48.85645;911.7198;;;;
2023/11/04 12:21:59;;;;;;;1.1;0.6;;;;;;;11.33;45.76563;911.6386;;;;
2023/11/04 12:24:29;;;;;;;0.5;0.5;;;;;;;11.09;47.30664;911.4752;;;;
2023/11/04 12:26:58;;;;;;;0.6;0.4;;;;;;;11.01;47.19531;911.4736;;;;
2023/11/04 12:29:23;;;;;;;0.4;0.3;;;;;;;11.2;47.07715;911.4385;;;;
2023/11/04 12:31:48;;;;;;;1.3;0.7;;;;;;;11.27;49.24805;911.3873;;;;
2023/11/04 12:34:13;;;;;;;1.4;0.6;;;;;;;11.21;48.39355;911.368;;;;
2023/11/04 12:36:48;;;;;;;0.9;0.5;;;;;;;11.15;47.20996;911.313;;;;
2023/11/04 12:39:20;;;;;;;0.4;0.4;;;;;;;11.15;48.65039;911.3114;;;;
2023/11/04 12:41:44;;;;;;;0.6;0.5;;;;;;;11.22;45.60547;911.3106;;;;
2023/11/04 12:44:11;;;;;;;1.9;0.7;;;;;;;10.98;48.5293;911.2214;;;;
2023/11/04 12:46:36;;;;;;;0.8;0.6;;;;;;;11;49.86914;911.173;;;;
2023/11/04 12:49:03;;;;;;;1.2;0.4;;;;;;;11;46.38281;911.0328;;;;
2023/11/04 12:51:31;;;;;;;0.8;0.4;;;;;;;11.11;46.91992;910.9615;;;;
2023/11/04 12:53:56;;;;;;;1.3;0.7;;;;;;;11.22;48.85254;911.1359;;;;
2023/11/04 12:56:24;;;;;;;0.3;0.3;;;;;;;11.36;48.9375;910.9387;;;;
2023/11/04 12:58:49;;;;;;;0.4;0.4;;;;;;;11.47;50.74707;910.8999;;;;
2023/11/04 13:01:17;;;;;;;1.8;0.9;;;;;;;11.25;52.5498;910.6922;;;;
2023/11/04 13:03:49;;;;;;;1.5;0.7;;;;;;;11.25;49.08594;910.6347;;;;
2023/11/04 13:06:13;;;;;;;1.4;0.8;;;;;;;11.38;48.63086;910.6584;;;;
2023/11/04 13:08:41;;;;;;;0.5;0.5;;;;;;;11.38;48.52832;910.6584;;;;
2023/11/04 13:11:06;;;;;;;0.5;0.5;;;;;;;11.48;49.36328;910.717;;;;
2023/11/04 13:13:31;;;;;;;0.4;0.4;;;;;;;11.45;47.54004;910.7723;;;;
2023/11/04 13:15:56;;;;;;;0.8;0.5;;;;;;;11.12;45.11426;910.6291;;;;
2023/11/04 13:18:26;;;;;;;0.6;0.4;;;;;;;11.21;45.70801;910.5278;;;;
2023/11/04 13:20:51;;;;;;;0.5;0.4;;;;;;;11.57;45.99707;910.6221;;;;
2023/11/04 13:23:16;;;;;;;1;0.5;;;;;;;12.01;43.19141;910.5217;;;;
2023/11/04 13:25:44;;;;;;;0.4;0.4;;;;;;;12.65;45.46875;910.4213;;;;
2023/11/04 13:28:09;;;;;;;2.2;1.5;;;;;;;13.05;44.00586;910.3663;;;;
2023/11/04 13:30:35;;;;;;;0.3;0.3;;;;;;;15.94;43.20117;910.3572;;;;
2023/11/04 13:33:00;;;;;;;5.9;0.5;;;;;;;17.52;36.94043;909.9643;;;;
2023/11/04 13:35:29;;;;;;;0.2;0.2;;;;;;;17.24;34.74805;909.9582;;;;
2023/11/04 13:37:59;;;;;;;0.4;0.3;;;;;;;15.54;37.57129;910.1266;;;;
2023/11/04 13:40:25;;;;;;;0.3;0.3;;;;;;;14.7;40.56543;910.0307;;;;
2023/11/04 13:42:53;;;;;;;2.2;1.5;;;;;;;13.62;42.5918;910.0828;;;;
2023/11/04 13:45:18;;;;;;;1.4;1.1;;;;;;;13.31;41.66504;910.008;;;;
2023/11/04 13:47:46;;;;;;;0.7;0.3;;;;;;;14.19;40.44824;909.9381;;;;
2023/11/04 13:50:11;;;;;;;0.4;0.3;;;;;;;13.82;41.04688;909.9614;;;;
2023/11/04 13:52:41;;;;;;;0.7;0.3;;;;;;;12.86;41.73633;909.9329;;;;
2023/11/04 13:55:15;;;;;;;0.1;0.1;;;;;;;12.7;44.47559;909.9474;;;;
2023/11/04 13:57:39;;;;;;;0.4;0.4;;;;;;;12.51;45.56934;909.8223;;;;
2023/11/04 14:00:06;;;;;;;2.1;0.5;;;;;;;12.14;45.38184;909.9571;;;;
2023/11/04 14:02:29;;;;;;;0.4;0.4;;;;;;;12.08;47.47266;910.0381;;;;
2023/11/04 14:05:00;;;;;;;1.2;0.8;;;;;;;11.77;45.35449;910.1145;;;;
2023/11/04 14:07:23;;;;;;;1.8;1.1;;;;;;;12.07;44.18262;910.0184;;;;
2023/11/04 14:09:49;;;;;;;2.4;1.3;;;;;;;11.71;45.19922;909.9822;;;;
2023/11/04 14:12:15;;;;;;;0.5;0.4;;;;;;;11.88;45.53711;909.783;;;;
2023/11/04 14:14:45;;;;;;;0.2;0.2;;;;;;;12.02;44.5332;909.6537;;;;
2023/11/04 14:17:10;;;;;;;0.7;0.5;;;;;;;12.03;45.69043;909.6501;;;;
2023/11/04 14:19:39;;;;;;;2.2;1.3;;;;;;;12.16;45.58984;909.6199;;;;
2023/11/04 14:22:03;;;;;;;1.1;0.7;;;;;;;12.34;44.3125;909.603;;;;
2023/11/04 14:24:34;;;;;;;0.9;0.7;;;;;;;12.2;46.5791;909.7173;;;;
2023/11/04 14:26:58;;;;;;;0.7;0.6;;;;;;;12.17;45.7627;909.5814;;;;
2023/11/04 14:29:25;;;;;;;0.8;0.6;;;;;;;11.94;46.71094;909.4091;;;;
2023/11/04 14:31:49;;;;;;;0.6;0.6;;;;;;;11.76;47.60742;909.4695;;;;
2023/11/04 14:34:16;;;;;;;1;0.5;;;;;;;11.78;49.67188;909.5037;;;;
2023/11/04 14:36:42;;;;;;;1.3;0.9;;;;;;;11.92;48.875;909.4919;;;;
2023/11/04 14:39:09;;;;;;;2.7;1.6;;;;;;;11.67;48.2959;909.4462;;;;
2023/11/04 14:41:35;;;;;;;3.1;1.9;;;;;;;11.53;49.00195;909.5933;;;;
2023/11/04 14:44:00;;;;;;;1.6;0.8;;;;;;;11.58;50.33594;909.642;;;;
2023/11/04 14:46:25;;;;;;;1.1;0.6;;;;;;;11.55;51.4541;909.606;;;;
2023/11/04 14:48:53;;;;;;;0.7;0.6;;;;;;;11.49;51.61719;909.5943;;;;
2023/11/04 14:51:18;;;;;;;1.5;0.7;;;;;;;11.52;50.75293;909.5617;;;;
2023/11/04 14:53:46;;;;;;;1.2;0.7;;;;;;;11.55;49.84082;909.5303;;;;
2023/11/04 14:56:12;;;;;;;0.6;0.4;;;;;;;11.47;50.02441;909.5123;;;;
2023/11/04 14:58:37;;;;;;;2.3;0.9;;;;;;;11.37;52.47266;909.5614;;;;
2023/11/04 15:01:03;;;;;;;3.9;2.1;;;;;;;11.34;51.68066;909.5792;;;;
2023/11/04 15:03:29;;;;;;;4.9;2.9;;;;;;;11.37;50.15039;909.5694;;;;
2023/11/04 15:05:54;;;;;;;3.9;2.4;;;;;;;11.42;53.71582;909.7586;;;;
2023/11/04 15:08:21;;;;;;;4;2.2;;;;;;;11.54;52.99707;909.6942;;;;
2023/11/04 15:10:46;;;;;;;2.8;2.1;;;;;;;11.49;54.14648;909.7281;;;;
2023/11/04 15:13:14;;;;;;;3.1;1;;;;;;;11.27;54.80664;909.6234;;;;
2023/11/04 15:15:39;;;;;;;1.6;1.2;;;;;;;10.83;57.65234;909.5452;;;;
2023/11/04 15:18:05;;;;;;;1.1;1;;;;;;;10.65;55.80078;909.6789;;;;
2023/11/04 15:20:31;;;;;;;1.2;1;;;;;;;10.6;58.15918;909.6501;;;;
2023/11/04 15:22:57;;;;;;;2.2;1.8;;;;;;;10.71;54.30176;909.6362;;;;
2023/11/04 15:25:22;;;;;;;2.2;1.8;;;;;;;10.67;57.11719;909.6989;;;;
2023/11/04 15:27:47;;;;;;;2.9;2;;;;;;;10.77;56.53613;909.6307;;;;
2023/11/04 15:30:16;;;;;;;2.3;1.5;;;;;;;10.69;57.80469;909.92;;;;
2023/11/04 15:32:42;;;;;;;2;1.4;;;;;;;11.06;55.55664;909.8759;;;;
2023/11/04 15:35:15;;;;;;;2.5;1.7;;;;;;;10.83;58.08691;909.9623;;;;
2023/11/04 15:37:44;;;;;;;3.3;2.1;;;;;;;10.92;59.91602;910.1092;;;;
2023/11/04 15:40:21;;;;;;;2.4;1.8;;;;;;;10.86;61.32422;910.0496;;;;
2023/11/04 15:42:51;;;;;;;4.7;3.2;;;;;;;10.71;63.0625;910.2353;;;;
2023/11/04 15:45:17;;;;;;;5.6;3.5;;;;;;;10.66;62.88379;910.3594;;;;
2023/11/04 15:47:46;;;;;;;2.3;1.8;;;;;;;10.69;59.25488;910.5329;;;;
2023/11/04 15:50:11;;;;;;;2.8;1.8;;;;;;;10.62;59.62305;910.6139;;;;
2023/11/04 15:52:42;;;;;;;5.1;3.6;;;;;;;10.78;63.71289;910.5134;;;;